Wadi Alyarmouk — 6AGQ — position and weather

sailwx.info

Track history (hours):
 
Tides and Currents Weather Stations Pressure Air Temp Water Temp Dewpoint Dewpoint Depression Visibility Wind Speed Wind Dir Waves Ship Positions

Wadi Alyarmouk

Last reported at 2018-Jun-26 21:34 UTC. Time now 2018-Jul-16 20:07 UTC.
Position N 31°17' E 032°22'.
Warning: this ship's position is 19 days out of date.

Length 229 m; draft 13 m.

Type: Cargo ship. MMSI: 622120442.

Date/timePositionNaut miles runAvg speedWind from/ knotsBaromVisibWave heightAir tempDewpointWater temp
2018-Jun-26 21:34N 31°17' E 032°22'111.2
2018-Jun-26 21:31N 31°18' E 032°22'8 1.1
2018-Jun-26 14:12N 31°24' E 032°16'0 0.0
2018-Jun-26 13:55N 31°24' E 032°16'0 0.0
2018-Jun-26 12:18N 31°24' E 032°16'  
2018-Jun-24 07:01N 37°29' E 025°56'612.3
2018-Jun-24 06:31N 37°35' E 025°54'277 5.7
2018-Jun-22 05:50N 41°27' E 029°09'1 0.6
2018-Jun-22 04:52N 41°27' E 029°08'13 6.1
2018-Jun-22 02:42N 41°40' E 029°09'312.7
2018-Jun-22 02:30N 41°43' E 029°08'612.8
2018-Jun-22 02:00N 41°49' E 029°07'713.0
2018-Jun-22 01:29N 41°56' E 029°06'612.9
2018-Jun-22 01:00N 42°02' E 029°05'612.6
2018-Jun-22 00:30N 42°08' E 029°05'612.6
2018-Jun-22 00:00N 42°15' E 029°04'712.6
2018-Jun-21 23:25N 42°22' E 029°03'512.6
2018-Jun-21 23:00N 42°27' E 029°02'712.5
2018-Jun-21 22:29N 42°34' E 029°01'612.6
2018-Jun-21 22:00N 42°40' E 029°00'612.7
2018-Jun-21 21:30N 42°46' E 028°59'1212.5
2018-Jun-21 20:33N 42°58' E 028°58'112.2
2018-Jun-21 20:30N 42°59' E 028°58'612.2
2018-Jun-21 20:00N 43°05' E 028°57'612.0
2018-Jun-21 19:30N 43°11' E 028°56'611.9
2018-Jun-21 19:00N 43°16' E 028°55'612.1
2018-Jun-21 18:30N 43°22' E 028°54'612.2
2018-Jun-21 18:00N 43°28' E 028°53'612.2
2018-Jun-21 17:30N 43°35' E 028°52'612.3
2018-Jun-21 17:00N 43°41' E 028°51'612.1
2018-Jun-21 16:30N 43°47' E 028°51'612.2
2018-Jun-21 15:59N 43°53' E 028°50'612.4
2018-Jun-21 15:30N 43°59' E 028°48'612.1
2018-Jun-21 15:00N 44°04' E 028°43'3 6.3
2018-Jun-21 14:30N 44°06' E 028°41'1 0.9
2018-Jun-21 13:52N 44°06' E 028°40'0 0.0
2018-Jun-21 13:25N 44°06' E 028°40'0 0.0
2018-Jun-21 12:52N 44°06' E 028°40'0 0.0
2018-Jun-21 12:28N 44°06' E 028°40'0 0.0
2018-Jun-21 11:58N 44°06' E 028°40'0 0.0
2018-Jun-21 11:28N 44°06' E 028°40'0 0.0
2018-Jun-21 10:55N 44°06' E 028°40'0 0.0
2018-Jun-21 10:28N 44°06' E 028°40'0 0.0
2018-Jun-21 09:58N 44°06' E 028°40'0 0.0
2018-Jun-21 09:28N 44°06' E 028°40'0 0.0
2018-Jun-21 08:46N 44°06' E 028°40'0 0.0
2018-Jun-21 08:22N 44°06' E 028°40'0 0.0
2018-Jun-21 07:58N 44°06' E 028°40'0 0.0
2018-Jun-21 07:28N 44°06' E 028°40'0 0.0
2018-Jun-21 06:58N 44°06' E 028°40'0 0.0
2018-Jun-21 06:28N 44°06' E 028°40'0 0.0
2018-Jun-21 05:58N 44°06' E 028°40'0 0.0
2018-Jun-21 05:28N 44°06' E 028°40'0 0.0
2018-Jun-21 04:58N 44°06' E 028°40'0 0.0
2018-Jun-21 04:28N 44°06' E 028°40'0 0.0
2018-Jun-21 03:58N 44°06' E 028°40'0 0.0
2018-Jun-21 03:28N 44°06' E 028°40'0 0.0
2018-Jun-21 02:58N 44°06' E 028°40'0 0.0
2018-Jun-21 02:28N 44°06' E 028°40'0 0.0
2018-Jun-21 01:58N 44°06' E 028°40'0 0.0
2018-Jun-21 01:28N 44°06' E 028°40'0 0.0
2018-Jun-21 00:58N 44°06' E 028°40'0 0.0
2018-Jun-21 00:28N 44°06' E 028°40'0 0.0
2018-Jun-20 23:58N 44°06' E 028°40'0 0.0
2018-Jun-20 23:28N 44°06' E 028°40'0 0.0
2018-Jun-20 22:58N 44°06' E 028°40'0 0.0
2018-Jun-20 22:28N 44°06' E 028°40'0 0.0
2018-Jun-20 21:58N 44°06' E 028°40'0 0.0
2018-Jun-20 21:28N 44°06' E 028°40'0 0.0
2018-Jun-20 20:58N 44°06' E 028°40'0 0.0
2018-Jun-20 20:25N 44°06' E 028°40'0 0.0
2018-Jun-20 19:58N 44°06' E 028°40'0 0.0
2018-Jun-20 19:28N 44°06' E 028°40'0 0.0
2018-Jun-20 18:58N 44°06' E 028°40'0 0.0
2018-Jun-20 18:28N 44°06' E 028°40'0 0.0
2018-Jun-20 17:58N 44°06' E 028°40'0 0.0
2018-Jun-20 17:28N 44°06' E 028°40'0 0.0
2018-Jun-20 16:58N 44°06' E 028°40'0 0.0
2018-Jun-20 16:28N 44°06' E 028°40'0 0.0
2018-Jun-20 15:58N 44°06' E 028°40'0 0.0
2018-Jun-20 15:28N 44°06' E 028°40'0 0.0
2018-Jun-20 14:58N 44°06' E 028°40'0 0.0
2018-Jun-20 14:28N 44°06' E 028°40'0 0.0
2018-Jun-20 13:58N 44°06' E 028°40'0 0.0
2018-Jun-20 13:28N 44°06' E 028°40'0 0.0
2018-Jun-20 12:58N 44°06' E 028°40'0 0.0
2018-Jun-20 12:28N 44°06' E 028°40'0 0.0
2018-Jun-20 11:49N 44°06' E 028°40'0 0.0
2018-Jun-20 11:22N 44°06' E 028°40'0 0.0
2018-Jun-20 10:52N 44°06' E 028°40'0 0.0
2018-Jun-20 10:19N 44°06' E 028°40'0 0.0
2018-Jun-20 09:58N 44°06' E 028°40'0 0.0
2018-Jun-20 09:25N 44°06' E 028°40'0 0.0
2018-Jun-20 08:58N 44°06' E 028°40'0 0.0
2018-Jun-20 08:28N 44°06' E 028°40'0 0.0
2018-Jun-20 07:58N 44°06' E 028°40'0 0.0
2018-Jun-20 07:28N 44°06' E 028°40'0 0.0
2018-Jun-20 06:58N 44°06' E 028°40'0 0.0
2018-Jun-20 06:28N 44°06' E 028°40'0 0.0
2018-Jun-20 05:58N 44°06' E 028°40'0 0.0
2018-Jun-20 05:28N 44°06' E 028°40'0 0.0
2018-Jun-20 04:58N 44°06' E 028°40'0 0.0
2018-Jun-20 04:28N 44°06' E 028°40'0 0.0
2018-Jun-20 03:58N 44°06' E 028°40'0 0.0
2018-Jun-20 03:28N 44°06' E 028°40'0 0.0
2018-Jun-20 02:58N 44°06' E 028°40'0 0.0
2018-Jun-20 02:28N 44°06' E 028°40'0 0.0
2018-Jun-20 01:58N 44°06' E 028°40'0 0.0
2018-Jun-20 01:25N 44°06' E 028°40'0 0.0
2018-Jun-20 00:58N 44°06' E 028°40'0 0.0
2018-Jun-20 00:28N 44°06' E 028°40'0 0.0
2018-Jun-19 23:58N 44°06' E 028°40'0 0.0
2018-Jun-19 23:28N 44°06' E 028°40'0 0.0
2018-Jun-19 22:58N 44°06' E 028°40'0 0.0
2018-Jun-19 22:28N 44°06' E 028°40'0 0.0
2018-Jun-19 21:58N 44°06' E 028°40'0 0.0
2018-Jun-19 21:28N 44°06' E 028°40'0 0.0
2018-Jun-19 20:58N 44°06' E 028°40'0 0.0
2018-Jun-19 20:28N 44°06' E 028°40'0 0.0
2018-Jun-19 19:55N 44°06' E 028°40'0 0.0
2018-Jun-19 19:28N 44°06' E 028°40'0 0.0
2018-Jun-19 18:58N 44°06' E 028°40'0 0.0
2018-Jun-19 18:28N 44°06' E 028°40'0 0.0
2018-Jun-19 17:58N 44°06' E 028°40'0 0.0
2018-Jun-19 17:28N 44°06' E 028°40'0 0.0
2018-Jun-19 16:58N 44°06' E 028°40'0 0.0
2018-Jun-19 16:28N 44°06' E 028°40'0 0.0
2018-Jun-19 15:58N 44°06' E 028°40'0 0.0
2018-Jun-19 15:28N 44°06' E 028°40'0 0.0
2018-Jun-19 14:58N 44°06' E 028°40'0 0.0
2018-Jun-19 14:28N 44°06' E 028°40'0 0.0
2018-Jun-19 13:58N 44°06' E 028°40'0 0.0
2018-Jun-19 13:28N 44°06' E 028°40'0 0.0
2018-Jun-19 12:58N 44°06' E 028°40'0 0.0
2018-Jun-19 12:28N 44°06' E 028°40'0 0.0
2018-Jun-19 11:58N 44°06' E 028°40'0 0.0
2018-Jun-19 11:25N 44°06' E 028°40'0 0.0
2018-Jun-19 10:58N 44°06' E 028°40'0 0.0
2018-Jun-19 10:28N 44°06' E 028°40'0 0.0
2018-Jun-19 09:55N 44°06' E 028°40'0 0.0
2018-Jun-19 09:28N 44°06' E 028°40'0 0.0
2018-Jun-19 08:58N 44°06' E 028°40'0 0.0
2018-Jun-19 08:28N 44°06' E 028°40'0 0.0
2018-Jun-19 07:58N 44°06' E 028°40'0 0.0
2018-Jun-19 07:28N 44°06' E 028°40'0 0.0
2018-Jun-19 07:00N 44°06' E 028°40'0 0.0
2018-Jun-19 06:28N 44°06' E 028°40'0 0.0
2018-Jun-19 05:58N 44°06' E 028°40'0 0.0
2018-Jun-19 05:25N 44°06' E 028°40'0 0.0
2018-Jun-19 04:58N 44°06' E 028°40'0 0.0
2018-Jun-19 04:28N 44°06' E 028°40'0 0.0
2018-Jun-19 03:55N 44°06' E 028°40'0 0.0
2018-Jun-19 03:28N 44°06' E 028°40'0 0.0
2018-Jun-19 02:58N 44°06' E 028°40'0 0.0
2018-Jun-19 02:28N 44°06' E 028°40'0 0.0
2018-Jun-19 01:58N 44°06' E 028°40'0 0.0
2018-Jun-19 01:25N 44°06' E 028°40'0 0.0
2018-Jun-19 00:58N 44°06' E 028°40'0 0.0
2018-Jun-19 00:28N 44°06' E 028°40'0 0.0
2018-Jun-18 23:58N 44°06' E 028°40'0 0.0
2018-Jun-18 23:28N 44°06' E 028°40'0 0.0
2018-Jun-18 22:58N 44°06' E 028°40'0 0.0
2018-Jun-18 22:28N 44°06' E 028°40'0 0.0
2018-Jun-18 21:58N 44°06' E 028°40'0 0.0
2018-Jun-18 21:28N 44°06' E 028°40'0 0.0
2018-Jun-18 20:58N 44°06' E 028°40'0 0.0
2018-Jun-18 20:28N 44°06' E 028°40'0 0.0
2018-Jun-18 19:58N 44°06' E 028°40'0 0.0
2018-Jun-18 19:28N 44°06' E 028°40'0 0.0
2018-Jun-18 18:58N 44°06' E 028°40'0 0.0
2018-Jun-18 18:28N 44°06' E 028°40'0 0.0
2018-Jun-18 17:58N 44°06' E 028°40'0 0.0
2018-Jun-18 17:28N 44°06' E 028°40'0 0.0
2018-Jun-18 16:58N 44°06' E 028°40'0 0.0
2018-Jun-18 16:28N 44°06' E 028°40'0 0.0
2018-Jun-18 15:58N 44°06' E 028°40'0 0.0
2018-Jun-18 15:28N 44°06' E 028°40'0 0.0
2018-Jun-18 14:58N 44°06' E 028°40'0 0.0
2018-Jun-18 14:28N 44°06' E 028°40'0 0.0
2018-Jun-18 13:58N 44°06' E 028°40'0 0.0
2018-Jun-18 13:28N 44°06' E 028°40'0 0.0
2018-Jun-18 12:58N 44°06' E 028°40'0 0.0
2018-Jun-18 12:28N 44°06' E 028°40'0 0.0
2018-Jun-18 11:43N 44°06' E 028°40'0 0.0
2018-Jun-18 11:19N 44°06' E 028°40'0 0.0
2018-Jun-18 10:58N 44°06' E 028°40'0 0.0
2018-Jun-18 10:28N 44°06' E 028°40'0 0.0
2018-Jun-18 09:58N 44°06' E 028°40'0 0.0
2018-Jun-18 09:25N 44°06' E 028°40'0 0.0
2018-Jun-18 08:58N 44°06' E 028°40'0 0.0
2018-Jun-18 08:28N 44°06' E 028°40'0 0.0
2018-Jun-18 07:55N 44°06' E 028°40'0 0.0
2018-Jun-18 07:28N 44°06' E 028°40'0 0.0
2018-Jun-18 06:58N 44°06' E 028°40'0 0.0
2018-Jun-18 06:28N 44°06' E 028°40'0 0.0
2018-Jun-18 05:58N 44°06' E 028°40'0 0.0
2018-Jun-18 05:28N 44°06' E 028°40'0 0.0
2018-Jun-18 04:58N 44°06' E 028°40'0 0.0
2018-Jun-18 04:28N 44°06' E 028°40'0 0.2
2018-Jun-18 03:58N 44°06' E 028°40'1 1.2
2018-Jun-18 03:28N 44°06' E 028°41'1 2.6
2018-Jun-18 03:00N 44°07' E 028°41'2 4.4
2018-Jun-18 02:30N 44°09' E 028°40'0 0.8
2018-Jun-18 01:57N 44°10' E 028°39'0 0.1
2018-Jun-18 01:30N 44°10' E 028°39'0 0.0
2018-Jun-18 01:00N 44°10' E 028°39'0 0.0
2018-Jun-18 00:30N 44°10' E 028°39'0 0.0
2018-Jun-18 00:00N 44°10' E 028°39'0 0.0
2018-Jun-17 23:30N 44°10' E 028°39'0 0.0
2018-Jun-17 23:00N 44°10' E 028°39'0 0.0
2018-Jun-17 22:30N 44°10' E 028°39'0 0.0
2018-Jun-17 22:00N 44°10' E 028°39'0 0.0
2018-Jun-17 21:30N 44°10' E 028°39'0 0.0
2018-Jun-17 21:00N 44°10' E 028°39'0 0.0
2018-Jun-17 20:30N 44°10' E 028°39'0 0.0
2018-Jun-17 20:00N 44°10' E 028°39'0 0.0
2018-Jun-17 19:27N 44°10' E 028°39'0 0.0
2018-Jun-17 19:00N 44°10' E 028°39'0 0.0
2018-Jun-17 18:30N 44°10' E 028°39'0 0.0
2018-Jun-17 18:00N 44°10' E 028°39'0 0.0
2018-Jun-17 17:30N 44°10' E 028°39'0 0.0
2018-Jun-17 17:00N 44°10' E 028°39'0 0.0
2018-Jun-17 16:30N 44°10' E 028°39'0 0.0
2018-Jun-17 16:00N 44°10' E 028°39'0 0.0
2018-Jun-17 15:30N 44°10' E 028°39'0 0.0
2018-Jun-17 15:00N 44°10' E 028°39'0 0.0
2018-Jun-17 14:30N 44°10' E 028°39'0 0.0
2018-Jun-17 14:00N 44°10' E 028°39'0 0.0
2018-Jun-17 13:30N 44°10' E 028°39'0 0.0
2018-Jun-17 13:00N 44°10' E 028°39'0 0.0
2018-Jun-17 12:30N 44°10' E 028°39'0 0.0
2018-Jun-17 11:57N 44°10' E 028°39'0 0.0
2018-Jun-17 11:30N 44°10' E 028°39'0 0.0
2018-Jun-17 11:00N 44°10' E 028°39'0 0.0
2018-Jun-17 10:30N 44°10' E 028°39'0 0.0
2018-Jun-17 10:00N 44°10' E 028°39'0 0.0
2018-Jun-17 09:30N 44°10' E 028°39'0 0.0
2018-Jun-17 09:00N 44°10' E 028°39'0 0.0
2018-Jun-17 08:30N 44°10' E 028°39'0 0.0
2018-Jun-17 08:00N 44°10' E 028°39'0 0.0
2018-Jun-17 07:29N 44°10' E 028°39'0 0.0
2018-Jun-17 07:00N 44°10' E 028°39'0 0.0
2018-Jun-17 06:30N 44°10' E 028°39'0 0.0
2018-Jun-17 05:59N 44°10' E 028°39'0 0.0
2018-Jun-17 05:29N 44°10' E 028°39'0 0.0
2018-Jun-17 04:59N 44°10' E 028°39'0 0.0
2018-Jun-17 04:29N 44°10' E 028°39'0 0.0
2018-Jun-17 03:56N 44°10' E 028°39'0 0.0
2018-Jun-17 03:29N 44°10' E 028°39'0 0.0
2018-Jun-17 03:00N 44°10' E 028°39'0 0.0
2018-Jun-17 02:30N 44°10' E 028°39'0 0.0
2018-Jun-17 01:59N 44°10' E 028°39'0 0.0
2018-Jun-17 01:29N 44°10' E 028°39'0 0.0
2018-Jun-17 01:00N 44°10' E 028°39'0 0.0
2018-Jun-17 00:28N 44°10' E 028°39'0 0.0
2018-Jun-17 00:00N 44°10' E 028°39'0 0.0
2018-Jun-16 23:30N 44°10' E 028°39'0 0.0
2018-Jun-16 23:00N 44°10' E 028°39'0 0.0
2018-Jun-16 22:28N 44°10' E 028°39'0 0.0
2018-Jun-16 21:58N 44°10' E 028°39'  
Track history (hours):
 
Tides and Currents Weather Stations Pressure Air Temp Water Temp Dewpoint Dewpoint Depression Visibility Wind Speed Wind Dir Waves Ship Positions

Wadi Alyarmouk

Last reported at 2018-Jun-26 21:34 UTC. Time now 2018-Jul-16 20:07 UTC.
Position N 31°17' E 032°22'.
Warning: this ship's position is 19 days out of date.

Length 229 m; draft 13 m.

Type: Cargo ship. MMSI: 622120442.

Date/timePositionNaut miles runAvg speedWind from/ knotsBaromVisibWave heightAir tempDewpointWater temp
2018-Jun-26 21:34N 31°17' E 032°22'111.2
2018-Jun-26 21:31N 31°18' E 032°22'8 1.1
2018-Jun-26 14:12N 31°24' E 032°16'0 0.0
2018-Jun-26 13:55N 31°24' E 032°16'0 0.0
2018-Jun-26 12:18N 31°24' E 032°16'  
2018-Jun-24 07:01N 37°29' E 025°56'612.3
2018-Jun-24 06:31N 37°35' E 025°54'277 5.7
2018-Jun-22 05:50N 41°27' E 029°09'1 0.6
2018-Jun-22 04:52N 41°27' E 029°08'13 6.1
2018-Jun-22 02:42N 41°40' E 029°09'312.7
2018-Jun-22 02:30N 41°43' E 029°08'612.8
2018-Jun-22 02:00N 41°49' E 029°07'713.0
2018-Jun-22 01:29N 41°56' E 029°06'612.9
2018-Jun-22 01:00N 42°02' E 029°05'612.6
2018-Jun-22 00:30N 42°08' E 029°05'612.6
2018-Jun-22 00:00N 42°15' E 029°04'712.6
2018-Jun-21 23:25N 42°22' E 029°03'512.6
2018-Jun-21 23:00N 42°27' E 029°02'712.5
2018-Jun-21 22:29N 42°34' E 029°01'612.6
2018-Jun-21 22:00N 42°40' E 029°00'612.7
2018-Jun-21 21:30N 42°46' E 028°59'1212.5
2018-Jun-21 20:33N 42°58' E 028°58'112.2
2018-Jun-21 20:30N 42°59' E 028°58'612.2
2018-Jun-21 20:00N 43°05' E 028°57'612.0
2018-Jun-21 19:30N 43°11' E 028°56'611.9
2018-Jun-21 19:00N 43°16' E 028°55'612.1
2018-Jun-21 18:30N 43°22' E 028°54'612.2
2018-Jun-21 18:00N 43°28' E 028°53'612.2
2018-Jun-21 17:30N 43°35' E 028°52'612.3
2018-Jun-21 17:00N 43°41' E 028°51'612.1
2018-Jun-21 16:30N 43°47' E 028°51'612.2
2018-Jun-21 15:59N 43°53' E 028°50'612.4
2018-Jun-21 15:30N 43°59' E 028°48'612.1
2018-Jun-21 15:00N 44°04' E 028°43'3 6.3
2018-Jun-21 14:30N 44°06' E 028°41'1 0.9
2018-Jun-21 13:52N 44°06' E 028°40'0 0.0
2018-Jun-21 13:25N 44°06' E 028°40'0 0.0
2018-Jun-21 12:52N 44°06' E 028°40'0 0.0
2018-Jun-21 12:28N 44°06' E 028°40'0 0.0
2018-Jun-21 11:58N 44°06' E 028°40'0 0.0
2018-Jun-21 11:28N 44°06' E 028°40'0 0.0
2018-Jun-21 10:55N 44°06' E 028°40'0 0.0
2018-Jun-21 10:28N 44°06' E 028°40'0 0.0
2018-Jun-21 09:58N 44°06' E 028°40'0 0.0
2018-Jun-21 09:28N 44°06' E 028°40'0 0.0
2018-Jun-21 08:46N 44°06' E 028°40'0 0.0
2018-Jun-21 08:22N 44°06' E 028°40'0 0.0
2018-Jun-21 07:58N 44°06' E 028°40'0 0.0
2018-Jun-21 07:28N 44°06' E 028°40'0 0.0
2018-Jun-21 06:58N 44°06' E 028°40'0 0.0
2018-Jun-21 06:28N 44°06' E 028°40'0 0.0
2018-Jun-21 05:58N 44°06' E 028°40'0 0.0
2018-Jun-21 05:28N 44°06' E 028°40'0 0.0
2018-Jun-21 04:58N 44°06' E 028°40'0 0.0
2018-Jun-21 04:28N 44°06' E 028°40'0 0.0
2018-Jun-21 03:58N 44°06' E 028°40'0 0.0
2018-Jun-21 03:28N 44°06' E 028°40'0 0.0
2018-Jun-21 02:58N 44°06' E 028°40'0 0.0
2018-Jun-21 02:28N 44°06' E 028°40'0 0.0
2018-Jun-21 01:58N 44°06' E 028°40'0 0.0
2018-Jun-21 01:28N 44°06' E 028°40'0 0.0
2018-Jun-21 00:58N 44°06' E 028°40'0 0.0
2018-Jun-21 00:28N 44°06' E 028°40'0 0.0
2018-Jun-20 23:58N 44°06' E 028°40'0 0.0
2018-Jun-20 23:28N 44°06' E 028°40'0 0.0
2018-Jun-20 22:58N 44°06' E 028°40'0 0.0
2018-Jun-20 22:28N 44°06' E 028°40'0 0.0
2018-Jun-20 21:58N 44°06' E 028°40'0 0.0
2018-Jun-20 21:28N 44°06' E 028°40'0 0.0
2018-Jun-20 20:58N 44°06' E 028°40'0 0.0
2018-Jun-20 20:25N 44°06' E 028°40'0 0.0
2018-Jun-20 19:58N 44°06' E 028°40'0 0.0
2018-Jun-20 19:28N 44°06' E 028°40'0 0.0
2018-Jun-20 18:58N 44°06' E 028°40'0 0.0
2018-Jun-20 18:28N 44°06' E 028°40'0 0.0
2018-Jun-20 17:58N 44°06' E 028°40'0 0.0
2018-Jun-20 17:28N 44°06' E 028°40'0 0.0
2018-Jun-20 16:58N 44°06' E 028°40'0 0.0
2018-Jun-20 16:28N 44°06' E 028°40'0 0.0
2018-Jun-20 15:58N 44°06' E 028°40'0 0.0
2018-Jun-20 15:28N 44°06' E 028°40'0 0.0
2018-Jun-20 14:58N 44°06' E 028°40'0 0.0
2018-Jun-20 14:28N 44°06' E 028°40'0 0.0
2018-Jun-20 13:58N 44°06' E 028°40'0 0.0
2018-Jun-20 13:28N 44°06' E 028°40'0 0.0
2018-Jun-20 12:58N 44°06' E 028°40'0 0.0
2018-Jun-20 12:28N 44°06' E 028°40'0 0.0
2018-Jun-20 11:49N 44°06' E 028°40'0 0.0
2018-Jun-20 11:22N 44°06' E 028°40'0 0.0
2018-Jun-20 10:52N 44°06' E 028°40'0 0.0
2018-Jun-20 10:19N 44°06' E 028°40'0 0.0
2018-Jun-20 09:58N 44°06' E 028°40'0 0.0
2018-Jun-20 09:25N 44°06' E 028°40'0 0.0
2018-Jun-20 08:58N 44°06' E 028°40'0 0.0
2018-Jun-20 08:28N 44°06' E 028°40'0 0.0
2018-Jun-20 07:58N 44°06' E 028°40'0 0.0
2018-Jun-20 07:28N 44°06' E 028°40'0 0.0
2018-Jun-20 06:58N 44°06' E 028°40'0 0.0
2018-Jun-20 06:28N 44°06' E 028°40'0 0.0
2018-Jun-20 05:58N 44°06' E 028°40'0 0.0
2018-Jun-20 05:28N 44°06' E 028°40'0 0.0
2018-Jun-20 04:58N 44°06' E 028°40'0 0.0
2018-Jun-20 04:28N 44°06' E 028°40'0 0.0
2018-Jun-20 03:58N 44°06' E 028°40'0 0.0
2018-Jun-20 03:28N 44°06' E 028°40'0 0.0
2018-Jun-20 02:58N 44°06' E 028°40'0 0.0
2018-Jun-20 02:28N 44°06' E 028°40'0 0.0
2018-Jun-20 01:58N 44°06' E 028°40'0 0.0
2018-Jun-20 01:25N 44°06' E 028°40'0 0.0
2018-Jun-20 00:58N 44°06' E 028°40'0 0.0
2018-Jun-20 00:28N 44°06' E 028°40'0 0.0
2018-Jun-19 23:58N 44°06' E 028°40'0 0.0
2018-Jun-19 23:28N 44°06' E 028°40'0 0.0
2018-Jun-19 22:58N 44°06' E 028°40'0 0.0
2018-Jun-19 22:28N 44°06' E 028°40'0 0.0
2018-Jun-19 21:58N 44°06' E 028°40'0 0.0
2018-Jun-19 21:28N 44°06' E 028°40'0 0.0
2018-Jun-19 20:58N 44°06' E 028°40'0 0.0
2018-Jun-19 20:28N 44°06' E 028°40'0 0.0
2018-Jun-19 19:55N 44°06' E 028°40'0 0.0
2018-Jun-19 19:28N 44°06' E 028°40'0 0.0
2018-Jun-19 18:58N 44°06' E 028°40'0 0.0
2018-Jun-19 18:28N 44°06' E 028°40'0 0.0
2018-Jun-19 17:58N 44°06' E 028°40'0 0.0
2018-Jun-19 17:28N 44°06' E 028°40'0 0.0
2018-Jun-19 16:58N 44°06' E 028°40'0 0.0
2018-Jun-19 16:28N 44°06' E 028°40'0 0.0
2018-Jun-19 15:58N 44°06' E 028°40'0 0.0
2018-Jun-19 15:28N 44°06' E 028°40'0 0.0
2018-Jun-19 14:58N 44°06' E 028°40'0 0.0
2018-Jun-19 14:28N 44°06' E 028°40'0 0.0
2018-Jun-19 13:58N 44°06' E 028°40'0 0.0
2018-Jun-19 13:28N 44°06' E 028°40'0 0.0
2018-Jun-19 12:58N 44°06' E 028°40'0 0.0
2018-Jun-19 12:28N 44°06' E 028°40'0 0.0
2018-Jun-19 11:58N 44°06' E 028°40'0 0.0
2018-Jun-19 11:25N 44°06' E 028°40'0 0.0
2018-Jun-19 10:58N 44°06' E 028°40'0 0.0
2018-Jun-19 10:28N 44°06' E 028°40'0 0.0
2018-Jun-19 09:55N 44°06' E 028°40'0 0.0
2018-Jun-19 09:28N 44°06' E 028°40'0 0.0
2018-Jun-19 08:58N 44°06' E 028°40'0 0.0
2018-Jun-19 08:28N 44°06' E 028°40'0 0.0
2018-Jun-19 07:58N 44°06' E 028°40'0 0.0
2018-Jun-19 07:28N 44°06' E 028°40'0 0.0
2018-Jun-19 07:00N 44°06' E 028°40'0 0.0
2018-Jun-19 06:28N 44°06' E 028°40'0 0.0
2018-Jun-19 05:58N 44°06' E 028°40'0 0.0
2018-Jun-19 05:25N 44°06' E 028°40'0 0.0
2018-Jun-19 04:58N 44°06' E 028°40'0 0.0
2018-Jun-19 04:28N 44°06' E 028°40'0 0.0
2018-Jun-19 03:55N 44°06' E 028°40'0 0.0
2018-Jun-19 03:28N 44°06' E 028°40'0 0.0
2018-Jun-19 02:58N 44°06' E 028°40'0 0.0
2018-Jun-19 02:28N 44°06' E 028°40'0 0.0
2018-Jun-19 01:58N 44°06' E 028°40'0 0.0
2018-Jun-19 01:25N 44°06' E 028°40'0 0.0
2018-Jun-19 00:58N 44°06' E 028°40'0 0.0
2018-Jun-19 00:28N 44°06' E 028°40'0 0.0
2018-Jun-18 23:58N 44°06' E 028°40'0 0.0
2018-Jun-18 23:28N 44°06' E 028°40'0 0.0
2018-Jun-18 22:58N 44°06' E 028°40'0 0.0
2018-Jun-18 22:28N 44°06' E 028°40'0 0.0
2018-Jun-18 21:58N 44°06' E 028°40'0 0.0
2018-Jun-18 21:28N 44°06' E 028°40'0 0.0
2018-Jun-18 20:58N 44°06' E 028°40'0 0.0
2018-Jun-18 20:28N 44°06' E 028°40'0 0.0
2018-Jun-18 19:58N 44°06' E 028°40'0 0.0
2018-Jun-18 19:28N 44°06' E 028°40'0 0.0
2018-Jun-18 18:58N 44°06' E 028°40'0 0.0
2018-Jun-18 18:28N 44°06' E 028°40'0 0.0
2018-Jun-18 17:58N 44°06' E 028°40'0 0.0
2018-Jun-18 17:28N 44°06' E 028°40'0 0.0
2018-Jun-18 16:58N 44°06' E 028°40'0 0.0
2018-Jun-18 16:28N 44°06' E 028°40'0 0.0
2018-Jun-18 15:58N 44°06' E 028°40'0 0.0
2018-Jun-18 15:28N 44°06' E 028°40'0 0.0
2018-Jun-18 14:58N 44°06' E 028°40'0 0.0
2018-Jun-18 14:28N 44°06' E 028°40'0 0.0
2018-Jun-18 13:58N 44°06' E 028°40'0 0.0
2018-Jun-18 13:28N 44°06' E 028°40'0 0.0
2018-Jun-18 12:58N 44°06' E 028°40'0 0.0
2018-Jun-18 12:28N 44°06' E 028°40'0 0.0
2018-Jun-18 11:43N 44°06' E 028°40'0 0.0
2018-Jun-18 11:19N 44°06' E 028°40'0 0.0
2018-Jun-18 10:58N 44°06' E 028°40'0 0.0
2018-Jun-18 10:28N 44°06' E 028°40'0 0.0
2018-Jun-18 09:58N 44°06' E 028°40'0 0.0
2018-Jun-18 09:25N 44°06' E 028°40'0 0.0
2018-Jun-18 08:58N 44°06' E 028°40'0 0.0
2018-Jun-18 08:28N 44°06' E 028°40'0 0.0
2018-Jun-18 07:55N 44°06' E 028°40'0 0.0
2018-Jun-18 07:28N 44°06' E 028°40'0 0.0
2018-Jun-18 06:58N 44°06' E 028°40'0 0.0
2018-Jun-18 06:28N 44°06' E 028°40'0 0.0
2018-Jun-18 05:58N 44°06' E 028°40'0 0.0
2018-Jun-18 05:28N 44°06' E 028°40'0 0.0
2018-Jun-18 04:58N 44°06' E 028°40'0 0.0
2018-Jun-18 04:28N 44°06' E 028°40'0 0.2
2018-Jun-18 03:58N 44°06' E 028°40'1 1.2
2018-Jun-18 03:28N 44°06' E 028°41'1 2.6
2018-Jun-18 03:00N 44°07' E 028°41'2 4.4
2018-Jun-18 02:30N 44°09' E 028°40'0 0.8
2018-Jun-18 01:57N 44°10' E 028°39'0 0.1
2018-Jun-18 01:30N 44°10' E 028°39'0 0.0
2018-Jun-18 01:00N 44°10' E 028°39'0 0.0
2018-Jun-18 00:30N 44°10' E 028°39'0 0.0
2018-Jun-18 00:00N 44°10' E 028°39'0 0.0
2018-Jun-17 23:30N 44°10' E 028°39'0 0.0
2018-Jun-17 23:00N 44°10' E 028°39'0 0.0
2018-Jun-17 22:30N 44°10' E 028°39'0 0.0
2018-Jun-17 22:00N 44°10' E 028°39'0 0.0
2018-Jun-17 21:30N 44°10' E 028°39'0 0.0
2018-Jun-17 21:00N 44°10' E 028°39'0 0.0
2018-Jun-17 20:30N 44°10' E 028°39'0 0.0
2018-Jun-17 20:00N 44°10' E 028°39'0 0.0
2018-Jun-17 19:27N 44°10' E 028°39'0 0.0
2018-Jun-17 19:00N 44°10' E 028°39'0 0.0
2018-Jun-17 18:30N 44°10' E 028°39'0 0.0
2018-Jun-17 18:00N 44°10' E 028°39'0 0.0
2018-Jun-17 17:30N 44°10' E 028°39'0 0.0
2018-Jun-17 17:00N 44°10' E 028°39'0 0.0
2018-Jun-17 16:30N 44°10' E 028°39'0 0.0
2018-Jun-17 16:00N 44°10' E 028°39'0 0.0
2018-Jun-17 15:30N 44°10' E 028°39'0 0.0
2018-Jun-17 15:00N 44°10' E 028°39'0 0.0
2018-Jun-17 14:30N 44°10' E 028°39'0 0.0
2018-Jun-17 14:00N 44°10' E 028°39'0 0.0
2018-Jun-17 13:30N 44°10' E 028°39'0 0.0
2018-Jun-17 13:00N 44°10' E 028°39'0 0.0
2018-Jun-17 12:30N 44°10' E 028°39'0 0.0
2018-Jun-17 11:57N 44°10' E 028°39'0 0.0
2018-Jun-17 11:30N 44°10' E 028°39'0 0.0
2018-Jun-17 11:00N 44°10' E 028°39'0 0.0
2018-Jun-17 10:30N 44°10' E 028°39'0 0.0
2018-Jun-17 10:00N 44°10' E 028°39'0 0.0
2018-Jun-17 09:30N 44°10' E 028°39'0 0.0
2018-Jun-17 09:00N 44°10' E 028°39'0 0.0
2018-Jun-17 08:30N 44°10' E 028°39'0 0.0
2018-Jun-17 08:00N 44°10' E 028°39'0 0.0
2018-Jun-17 07:29N 44°10' E 028°39'0 0.0
2018-Jun-17 07:00N 44°10' E 028°39'0 0.0
2018-Jun-17 06:30N 44°10' E 028°39'0 0.0
2018-Jun-17 05:59N 44°10' E 028°39'0 0.0
2018-Jun-17 05:29N 44°10' E 028°39'0 0.0
2018-Jun-17 04:59N 44°10' E 028°39'0 0.0
2018-Jun-17 04:29N 44°10' E 028°39'0 0.0
2018-Jun-17 03:56N 44°10' E 028°39'0 0.0
2018-Jun-17 03:29N 44°10' E 028°39'0 0.0
2018-Jun-17 03:00N 44°10' E 028°39'0 0.0
2018-Jun-17 02:30N 44°10' E 028°39'0 0.0
2018-Jun-17 01:59N 44°10' E 028°39'0 0.0
2018-Jun-17 01:29N 44°10' E 028°39'0 0.0
2018-Jun-17 01:00N 44°10' E 028°39'0 0.0
2018-Jun-17 00:28N 44°10' E 028°39'0 0.0
2018-Jun-17 00:00N 44°10' E 028°39'0 0.0
2018-Jun-16 23:30N 44°10' E 028°39'0 0.0
2018-Jun-16 23:00N 44°10' E 028°39'0 0.0
2018-Jun-16 22:28N 44°10' E 028°39'0 0.0
2018-Jun-16 21:58N 44°10' E 028°39'  

Dump ship's entire track history